sensor_id;sensor_type;location;lat;lon;timestamp;P1;durP1;ratioP1;P2;durP2;ratioP2
27223;SDS011;14965;50.660;13.226;2023-05-15T00:00:13;6.35;;;4.80;;
27223;SDS011;14965;50.660;13.226;2023-05-15T00:02:40;7.07;;;5.38;;
27223;SDS011;14965;50.660;13.226;2023-05-15T00:05:06;6.13;;;5.15;;
27223;SDS011;14965;50.660;13.226;2023-05-15T00:07:32;6.68;;;4.80;;
27223;SDS011;14965;50.660;13.226;2023-05-15T00:10:00;6.55;;;4.55;;
27223;SDS011;14965;50.660;13.226;2023-05-15T00:12:27;7.38;;;4.90;;
27223;SDS011;14965;50.660;13.226;2023-05-15T00:14:53;7.55;;;4.50;;
27223;SDS011;14965;50.660;13.226;2023-05-15T00:17:19;6.90;;;4.68;;
27223;SDS011;14965;50.660;13.226;2023-05-15T00:19:44;7.45;;;4.60;;
27223;SDS011;14965;50.660;13.226;2023-05-15T00:22:10;6.65;;;5.00;;
27223;SDS011;14965;50.660;13.226;2023-05-15T00:24:36;8.40;;;4.97;;
27223;SDS011;14965;50.660;13.226;2023-05-15T00:27:04;7.97;;;4.72;;
27223;SDS011;14965;50.660;13.226;2023-05-15T00:29:30;7.13;;;5.20;;
27223;SDS011;14965;50.660;13.226;2023-05-15T00:31:56;7.10;;;5.43;;
27223;SDS011;14965;50.660;13.226;2023-05-15T00:34:23;8.05;;;5.22;;
27223;SDS011;14965;50.660;13.226;2023-05-15T00:36:49;7.78;;;5.50;;
27223;SDS011;14965;50.660;13.226;2023-05-15T00:39:15;10.98;;;5.65;;
27223;SDS011;14965;50.660;13.226;2023-05-15T00:41:41;8.48;;;5.78;;
27223;SDS011;14965;50.660;13.226;2023-05-15T00:44:11;8.05;;;5.70;;
27223;SDS011;14965;50.660;13.226;2023-05-15T00:46:39;9.07;;;6.05;;
27223;SDS011;14965;50.660;13.226;2023-05-15T00:49:07;8.77;;;5.80;;
27223;SDS011;14965;50.660;13.226;2023-05-15T00:51:33;10.70;;;6.00;;
27223;SDS011;14965;50.660;13.226;2023-05-15T00:54:00;8.95;;;6.35;;
27223;SDS011;14965;50.660;13.226;2023-05-15T00:56:27;7.53;;;5.72;;
27223;SDS011;14965;50.660;13.226;2023-05-15T00:58:56;8.43;;;5.65;;
27223;SDS011;14965;50.660;13.226;2023-05-15T01:01:25;6.57;;;5.05;;
27223;SDS011;14965;50.660;13.226;2023-05-15T01:03:51;7.43;;;5.20;;
27223;SDS011;14965;50.660;13.226;2023-05-15T01:06:17;7.47;;;5.13;;
27223;SDS011;14965;50.660;13.226;2023-05-15T01:08:44;7.85;;;5.25;;
27223;SDS011;14965;50.660;13.226;2023-05-15T01:11:11;7.00;;;5.07;;
27223;SDS011;14965;50.660;13.226;2023-05-15T01:13:39;7.47;;;4.80;;
27223;SDS011;14965;50.660;13.226;2023-05-15T01:16:07;9.18;;;5.80;;
27223;SDS011;14965;50.660;13.226;2023-05-15T01:18:35;8.23;;;4.90;;
27223;SDS011;14965;50.660;13.226;2023-05-15T01:21:08;6.05;;;4.60;;
27223;SDS011;14965;50.660;13.226;2023-05-15T01:24:17;5.07;;;4.40;;
27223;SDS011;14965;50.660;13.226;2023-05-15T01:27:28;6.72;;;4.68;;
27223;SDS011;14965;50.660;13.226;2023-05-15T01:30:03;5.10;;;4.00;;
27223;SDS011;14965;50.660;13.226;2023-05-15T01:32:39;6.95;;;4.60;;
27223;SDS011;14965;50.660;13.226;2023-05-15T01:35:15;6.13;;;4.78;;
27223;SDS011;14965;50.660;13.226;2023-05-15T01:37:47;7.28;;;4.43;;
27223;SDS011;14965;50.660;13.226;2023-05-15T01:40:23;8.68;;;5.00;;
27223;SDS011;14965;50.660;13.226;2023-05-15T01:42:54;7.32;;;5.00;;
27223;SDS011;14965;50.660;13.226;2023-05-15T01:45:25;8.70;;;4.97;;
27223;SDS011;14965;50.660;13.226;2023-05-15T01:47:54;8.90;;;4.65;;
27223;SDS011;14965;50.660;13.226;2023-05-15T01:50:21;7.00;;;5.20;;
27223;SDS011;14965;50.660;13.226;2023-05-15T01:52:49;8.18;;;4.82;;
27223;SDS011;14965;50.660;13.226;2023-05-15T01:55:21;7.50;;;4.57;;
27223;SDS011;14965;50.660;13.226;2023-05-15T01:57:49;8.55;;;4.75;;
27223;SDS011;14965;50.660;13.226;2023-05-15T02:00:18;8.10;;;4.97;;
27223;SDS011;14965;50.660;13.226;2023-05-15T02:02:46;7.85;;;4.90;;
27223;SDS011;14965;50.660;13.226;2023-05-15T02:05:13;7.18;;;5.20;;
27223;SDS011;14965;50.660;13.226;2023-05-15T02:07:41;9.40;;;5.18;;
27223;SDS011;14965;50.660;13.226;2023-05-15T02:10:09;8.10;;;5.10;;
27223;SDS011;14965;50.660;13.226;2023-05-15T02:12:37;6.97;;;4.75;;
27223;SDS011;14965;50.660;13.226;2023-05-15T02:15:05;6.35;;;4.50;;
27223;SDS011;14965;50.660;13.226;2023-05-15T02:17:35;6.35;;;4.65;;
27223;SDS011;14965;50.660;13.226;2023-05-15T02:20:01;6.88;;;4.22;;
27223;SDS011;14965;50.660;13.226;2023-05-15T02:22:27;5.85;;;4.43;;
27223;SDS011;14965;50.660;13.226;2023-05-15T02:24:53;7.43;;;4.65;;
27223;SDS011;14965;50.660;13.226;2023-05-15T02:27:19;6.53;;;4.60;;
27223;SDS011;14965;50.660;13.226;2023-05-15T02:29:54;9.02;;;4.97;;
27223;SDS011;14965;50.660;13.226;2023-05-15T02:32:36;7.35;;;4.43;;
27223;SDS011;14965;50.660;13.226;2023-05-15T02:35:16;6.85;;;4.72;;
27223;SDS011;14965;50.660;13.226;2023-05-15T02:37:50;6.50;;;5.05;;
27223;SDS011;14965;50.660;13.226;2023-05-15T02:40:20;7.38;;;4.50;;
27223;SDS011;14965;50.660;13.226;2023-05-15T02:42:49;6.55;;;4.60;;
27223;SDS011;14965;50.660;13.226;2023-05-15T02:45:18;8.10;;;4.90;;
27223;SDS011;14965;50.660;13.226;2023-05-15T02:47:47;7.63;;;4.80;;
27223;SDS011;14965;50.660;13.226;2023-05-15T02:50:14;5.90;;;4.50;;
27223;SDS011;14965;50.660;13.226;2023-05-15T02:52:41;5.72;;;4.10;;
27223;SDS011;14965;50.660;13.226;2023-05-15T02:55:07;7.25;;;4.35;;
27223;SDS011;14965;50.660;13.226;2023-05-15T02:57:34;5.38;;;4.10;;
27223;SDS011;14965;50.660;13.226;2023-05-15T03:00:00;5.18;;;4.18;;
27223;SDS011;14965;50.660;13.226;2023-05-15T03:02:26;7.78;;;4.45;;
27223;SDS011;14965;50.660;13.226;2023-05-15T03:04:54;6.40;;;4.32;;
27223;SDS011;14965;50.660;13.226;2023-05-15T03:07:20;7.60;;;4.63;;
27223;SDS011;14965;50.660;13.226;2023-05-15T03:09:45;6.57;;;4.40;;
27223;SDS011;14965;50.660;13.226;2023-05-15T03:12:11;5.88;;;4.50;;
27223;SDS011;14965;50.660;13.226;2023-05-15T03:14:37;8.13;;;4.55;;
27223;SDS011;14965;50.660;13.226;2023-05-15T03:17:03;6.43;;;4.80;;
27223;SDS011;14965;50.660;13.226;2023-05-15T03:19:29;6.32;;;4.53;;
27223;SDS011;14965;50.660;13.226;2023-05-15T03:21:57;7.20;;;4.57;;
27223;SDS011;14965;50.660;13.226;2023-05-15T03:24:23;7.22;;;4.80;;
27223;SDS011;14965;50.660;13.226;2023-05-15T03:26:48;5.60;;;4.55;;
27223;SDS011;14965;50.660;13.226;2023-05-15T03:29:14;6.05;;;4.38;;
27223;SDS011;14965;50.660;13.226;2023-05-15T03:31:41;5.75;;;4.72;;
27223;SDS011;14965;50.660;13.226;2023-05-15T03:34:07;6.53;;;4.82;;
27223;SDS011;14965;50.660;13.226;2023-05-15T03:36:33;6.80;;;4.90;;
27223;SDS011;14965;50.660;13.226;2023-05-15T03:39:00;6.32;;;4.82;;
27223;SDS011;14965;50.660;13.226;2023-05-15T03:41:27;7.68;;;4.72;;
27223;SDS011;14965;50.660;13.226;2023-05-15T03:43:53;8.43;;;4.78;;
27223;SDS011;14965;50.660;13.226;2023-05-15T03:46:18;6.47;;;4.95;;
27223;SDS011;14965;50.660;13.226;2023-05-15T03:48:45;7.30;;;4.72;;
27223;SDS011;14965;50.660;13.226;2023-05-15T03:51:10;6.95;;;4.88;;
27223;SDS011;14965;50.660;13.226;2023-05-15T03:53:37;7.00;;;5.00;;
27223;SDS011;14965;50.660;13.226;2023-05-15T03:56:04;6.78;;;5.07;;
27223;SDS011;14965;50.660;13.226;2023-05-15T03:58:30;8.40;;;5.43;;
27223;SDS011;14965;50.660;13.226;2023-05-15T04:00:56;8.10;;;5.07;;
27223;SDS011;14965;50.660;13.226;2023-05-15T04:03:23;7.60;;;5.07;;
27223;SDS011;14965;50.660;13.226;2023-05-15T04:05:49;7.78;;;5.28;;
27223;SDS011;14965;50.660;13.226;2023-05-15T04:08:14;7.03;;;4.97;;
27223;SDS011;14965;50.660;13.226;2023-05-15T04:10:40;6.43;;;4.45;;
27223;SDS011;14965;50.660;13.226;2023-05-15T04:13:07;6.43;;;4.68;;
27223;SDS011;14965;50.660;13.226;2023-05-15T04:15:33;6.85;;;4.63;;
27223;SDS011;14965;50.660;13.226;2023-05-15T04:18:00;6.18;;;4.50;;
27223;SDS011;14965;50.660;13.226;2023-05-15T04:20:26;6.57;;;4.43;;
27223;SDS011;14965;50.660;13.226;2023-05-15T04:22:52;9.15;;;4.22;;
27223;SDS011;14965;50.660;13.226;2023-05-15T04:25:18;6.13;;;4.47;;
27223;SDS011;14965;50.660;13.226;2023-05-15T04:27:44;6.47;;;4.70;;
27223;SDS011;14965;50.660;13.226;2023-05-15T04:30:12;9.60;;;5.10;;
27223;SDS011;14965;50.660;13.226;2023-05-15T04:32:38;6.22;;;4.75;;
27223;SDS011;14965;50.660;13.226;2023-05-15T04:35:06;9.25;;;4.82;;
27223;SDS011;14965;50.660;13.226;2023-05-15T04:37:34;8.07;;;5.03;;
27223;SDS011;14965;50.660;13.226;2023-05-15T04:40:01;8.77;;;4.75;;
27223;SDS011;14965;50.660;13.226;2023-05-15T04:42:28;8.63;;;5.03;;
27223;SDS011;14965;50.660;13.226;2023-05-15T04:44:54;7.47;;;4.85;;
27223;SDS011;14965;50.660;13.226;2023-05-15T04:47:21;9.27;;;5.35;;
27223;SDS011;14965;50.660;13.226;2023-05-15T04:49:47;7.75;;;5.72;;
27223;SDS011;14965;50.660;13.226;2023-05-15T04:52:13;7.93;;;5.95;;
27223;SDS011;14965;50.660;13.226;2023-05-15T04:54:39;10.13;;;5.70;;
27223;SDS011;14965;50.660;13.226;2023-05-15T04:57:05;9.48;;;6.47;;
27223;SDS011;14965;50.660;13.226;2023-05-15T04:59:32;10.48;;;7.00;;
27223;SDS011;14965;50.660;13.226;2023-05-15T05:01:59;9.52;;;6.57;;
27223;SDS011;14965;50.660;13.226;2023-05-15T05:04:27;8.95;;;6.32;;
27223;SDS011;14965;50.660;13.226;2023-05-15T05:06:53;8.45;;;6.28;;
27223;SDS011;14965;50.660;13.226;2023-05-15T05:09:19;9.02;;;6.25;;
27223;SDS011;14965;50.660;13.226;2023-05-15T05:11:45;10.15;;;6.85;;
27223;SDS011;14965;50.660;13.226;2023-05-15T05:14:11;9.88;;;6.90;;
27223;SDS011;14965;50.660;13.226;2023-05-15T05:16:39;8.70;;;6.72;;
27223;SDS011;14965;50.660;13.226;2023-05-15T05:19:05;10.05;;;6.25;;
27223;SDS011;14965;50.660;13.226;2023-05-15T05:21:32;12.93;;;6.75;;
27223;SDS011;14965;50.660;13.226;2023-05-15T05:23:58;8.05;;;6.07;;
27223;SDS011;14965;50.660;13.226;2023-05-15T05:26:25;9.23;;;6.53;;
27223;SDS011;14965;50.660;13.226;2023-05-15T05:28:52;9.98;;;6.82;;
27223;SDS011;14965;50.660;13.226;2023-05-15T05:31:19;8.00;;;6.40;;
27223;SDS011;14965;50.660;13.226;2023-05-15T05:33:45;10.93;;;6.78;;
27223;SDS011;14965;50.660;13.226;2023-05-15T05:36:11;10.07;;;7.18;;
27223;SDS011;14965;50.660;13.226;2023-05-15T05:38:38;13.07;;;7.10;;
27223;SDS011;14965;50.660;13.226;2023-05-15T05:41:04;9.18;;;6.80;;
27223;SDS011;14965;50.660;13.226;2023-05-15T05:43:30;9.65;;;7.45;;
27223;SDS011;14965;50.660;13.226;2023-05-15T05:45:55;9.20;;;7.60;;
27223;SDS011;14965;50.660;13.226;2023-05-15T05:48:21;10.63;;;8.10;;
27223;SDS011;14965;50.660;13.226;2023-05-15T05:50:47;10.13;;;7.40;;
27223;SDS011;14965;50.660;13.226;2023-05-15T05:53:13;11.00;;;8.02;;
27223;SDS011;14965;50.660;13.226;2023-05-15T05:55:40;11.90;;;7.90;;
27223;SDS011;14965;50.660;13.226;2023-05-15T05:58:07;10.65;;;7.43;;
27223;SDS011;14965;50.660;13.226;2023-05-15T06:00:33;10.75;;;8.05;;
27223;SDS011;14965;50.660;13.226;2023-05-15T06:02:59;10.60;;;7.43;;
27223;SDS011;14965;50.660;13.226;2023-05-15T06:05:25;10.75;;;7.53;;
27223;SDS011;14965;50.660;13.226;2023-05-15T06:07:51;12.55;;;8.45;;
27223;SDS011;14965;50.660;13.226;2023-05-15T06:10:18;12.70;;;8.00;;
27223;SDS011;14965;50.660;13.226;2023-05-15T06:12:45;11.00;;;7.28;;
27223;SDS011;14965;50.660;13.226;2023-05-15T06:15:12;8.25;;;7.10;;
27223;SDS011;14965;50.660;13.226;2023-05-15T06:17:40;9.63;;;7.38;;
27223;SDS011;14965;50.660;13.226;2023-05-15T06:20:06;10.27;;;7.95;;
27223;SDS011;14965;50.660;13.226;2023-05-15T06:22:34;10.43;;;8.05;;
27223;SDS011;14965;50.660;13.226;2023-05-15T06:25:01;10.55;;;7.70;;
27223;SDS011;14965;50.660;13.226;2023-05-15T06:27:27;13.00;;;8.75;;
27223;SDS011;14965;50.660;13.226;2023-05-15T06:29:55;12.73;;;8.80;;
27223;SDS011;14965;50.660;13.226;2023-05-15T06:32:21;12.88;;;9.60;;
27223;SDS011;14965;50.660;13.226;2023-05-15T06:34:47;9.35;;;8.25;;
27223;SDS011;14965;50.660;13.226;2023-05-15T06:37:13;13.68;;;8.57;;
27223;SDS011;14965;50.660;13.226;2023-05-15T06:39:39;14.65;;;9.32;;
27223;SDS011;14965;50.660;13.226;2023-05-15T06:42:05;13.10;;;9.10;;
27223;SDS011;14965;50.660;13.226;2023-05-15T06:44:31;13.82;;;9.98;;
27223;SDS011;14965;50.660;13.226;2023-05-15T06:46:58;13.55;;;9.13;;
27223;SDS011;14965;50.660;13.226;2023-05-15T06:49:24;13.38;;;9.35;;
27223;SDS011;14965;50.660;13.226;2023-05-15T06:51:51;16.52;;;9.65;;
27223;SDS011;14965;50.660;13.226;2023-05-15T06:54:17;10.80;;;9.40;;
27223;SDS011;14965;50.660;13.226;2023-05-15T06:56:43;14.13;;;9.82;;
27223;SDS011;14965;50.660;13.226;2023-05-15T06:59:09;11.95;;;9.65;;
27223;SDS011;14965;50.660;13.226;2023-05-15T07:01:35;12.55;;;10.27;;
27223;SDS011;14965;50.660;13.226;2023-05-15T07:04:02;15.13;;;9.88;;
27223;SDS011;14965;50.660;13.226;2023-05-15T07:06:28;14.38;;;10.30;;
27223;SDS011;14965;50.660;13.226;2023-05-15T07:08:54;14.93;;;10.55;;
27223;SDS011;14965;50.660;13.226;2023-05-15T07:11:20;13.70;;;10.50;;
27223;SDS011;14965;50.660;13.226;2023-05-15T07:13:45;14.00;;;10.30;;
27223;SDS011;14965;50.660;13.226;2023-05-15T07:16:11;13.82;;;11.05;;
27223;SDS011;14965;50.660;13.226;2023-05-15T07:18:37;15.13;;;10.20;;
27223;SDS011;14965;50.660;13.226;2023-05-15T07:21:04;13.90;;;10.18;;
27223;SDS011;14965;50.660;13.226;2023-05-15T07:23:30;15.25;;;10.23;;
27223;SDS011;14965;50.660;13.226;2023-05-15T07:25:56;13.02;;;9.82;;
27223;SDS011;14965;50.660;13.226;2023-05-15T07:28:22;12.20;;;10.25;;
27223;SDS011;14965;50.660;13.226;2023-05-15T07:30:48;13.75;;;10.20;;
27223;SDS011;14965;50.660;13.226;2023-05-15T07:33:14;12.38;;;9.77;;
27223;SDS011;14965;50.660;13.226;2023-05-15T07:35:40;12.40;;;9.80;;
27223;SDS011;14965;50.660;13.226;2023-05-15T07:38:08;13.23;;;9.75;;
27223;SDS011;14965;50.660;13.226;2023-05-15T07:40:37;12.77;;;9.45;;
27223;SDS011;14965;50.660;13.226;2023-05-15T07:43:03;16.02;;;10.05;;
27223;SDS011;14965;50.660;13.226;2023-05-15T07:45:29;12.80;;;9.88;;
27223;SDS011;14965;50.660;13.226;2023-05-15T07:47:55;15.07;;;10.20;;
27223;SDS011;14965;50.660;13.226;2023-05-15T07:50:21;12.60;;;9.90;;
27223;SDS011;14965;50.660;13.226;2023-05-15T07:52:47;12.80;;;9.75;;
27223;SDS011;14965;50.660;13.226;2023-05-15T07:55:15;13.45;;;10.15;;
27223;SDS011;14965;50.660;13.226;2023-05-15T07:57:41;15.57;;;10.05;;
27223;SDS011;14965;50.660;13.226;2023-05-15T08:00:07;12.68;;;10.23;;
27223;SDS011;14965;50.660;13.226;2023-05-15T08:02:35;13.02;;;9.93;;
27223;SDS011;14965;50.660;13.226;2023-05-15T08:05:01;13.40;;;11.15;;
27223;SDS011;14965;50.660;13.226;2023-05-15T08:07:29;14.15;;;10.35;;
27223;SDS011;14965;50.660;13.226;2023-05-15T08:09:56;14.13;;;10.20;;
27223;SDS011;14965;50.660;13.226;2023-05-15T08:12:23;12.40;;;9.85;;
27223;SDS011;14965;50.660;13.226;2023-05-15T08:14:51;13.88;;;10.48;;
27223;SDS011;14965;50.660;13.226;2023-05-15T08:17:18;13.88;;;10.43;;
27223;SDS011;14965;50.660;13.226;2023-05-15T08:19:45;13.98;;;10.82;;
27223;SDS011;14965;50.660;13.226;2023-05-15T08:22:12;13.88;;;9.75;;
27223;SDS011;14965;50.660;13.226;2023-05-15T08:24:38;15.75;;;10.95;;
27223;SDS011;14965;50.660;13.226;2023-05-15T08:27:04;16.73;;;10.20;;
27223;SDS011;14965;50.660;13.226;2023-05-15T08:29:32;14.63;;;9.50;;
27223;SDS011;14965;50.660;13.226;2023-05-15T08:31:58;12.67;;;10.27;;
27223;SDS011;14965;50.660;13.226;2023-05-15T08:34:24;14.07;;;11.15;;
27223;SDS011;14965;50.660;13.226;2023-05-15T08:36:51;11.73;;;10.13;;
27223;SDS011;14965;50.660;13.226;2023-05-15T08:39:17;13.90;;;10.70;;
27223;SDS011;14965;50.660;13.226;2023-05-15T08:41:45;16.95;;;11.88;;
27223;SDS011;14965;50.660;13.226;2023-05-15T08:44:17;15.88;;;10.45;;
27223;SDS011;14965;50.660;13.226;2023-05-15T08:46:46;13.27;;;10.57;;
27223;SDS011;14965;50.660;13.226;2023-05-15T08:49:13;14.02;;;10.63;;
27223;SDS011;14965;50.660;13.226;2023-05-15T08:51:50;14.30;;;10.00;;
27223;SDS011;14965;50.660;13.226;2023-05-15T08:54:17;13.13;;;9.93;;
27223;SDS011;14965;50.660;13.226;2023-05-15T08:56:44;11.07;;;9.32;;
27223;SDS011;14965;50.660;13.226;2023-05-15T08:59:10;14.75;;;9.20;;
27223;SDS011;14965;50.660;13.226;2023-05-15T09:01:36;16.88;;;10.48;;
27223;SDS011;14965;50.660;13.226;2023-05-15T09:04:04;11.57;;;9.43;;
27223;SDS011;14965;50.660;13.226;2023-05-15T09:06:29;10.98;;;9.02;;
27223;SDS011;14965;50.660;13.226;2023-05-15T09:08:57;15.27;;;9.82;;
27223;SDS011;14965;50.660;13.226;2023-05-15T09:11:25;12.73;;;10.40;;
27223;SDS011;14965;50.660;13.226;2023-05-15T09:13:55;15.37;;;10.47;;
27223;SDS011;14965;50.660;13.226;2023-05-15T09:16:22;13.52;;;10.35;;
27223;SDS011;14965;50.660;13.226;2023-05-15T09:18:48;16.17;;;10.13;;
27223;SDS011;14965;50.660;13.226;2023-05-15T09:21:24;12.57;;;9.63;;
27223;SDS011;14965;50.660;13.226;2023-05-15T09:23:53;13.75;;;8.95;;
27223;SDS011;14965;50.660;13.226;2023-05-15T09:26:39;11.80;;;8.88;;
27223;SDS011;14965;50.660;13.226;2023-05-15T09:29:06;12.70;;;8.57;;
27223;SDS011;14965;50.660;13.226;2023-05-15T09:31:32;11.23;;;9.63;;
27223;SDS011;14965;50.660;13.226;2023-05-15T09:34:00;11.80;;;9.60;;
27223;SDS011;14965;50.660;13.226;2023-05-15T09:36:29;10.73;;;9.27;;
27223;SDS011;14965;50.660;13.226;2023-05-15T09:38:57;12.75;;;8.40;;
27223;SDS011;14965;50.660;13.226;2023-05-15T09:41:24;10.50;;;8.57;;
27223;SDS011;14965;50.660;13.226;2023-05-15T09:43:52;11.05;;;9.18;;
27223;SDS011;14965;50.660;13.226;2023-05-15T09:46:19;12.80;;;8.52;;
27223;SDS011;14965;50.660;13.226;2023-05-15T09:48:45;12.18;;;7.72;;
27223;SDS011;14965;50.660;13.226;2023-05-15T09:51:13;12.15;;;8.48;;
27223;SDS011;14965;50.660;13.226;2023-05-15T09:53:42;10.40;;;9.07;;
27223;SDS011;14965;50.660;13.226;2023-05-15T09:56:12;13.43;;;9.25;;
27223;SDS011;14965;50.660;13.226;2023-05-15T09:58:40;12.23;;;8.50;;
27223;SDS011;14965;50.660;13.226;2023-05-15T10:01:18;9.02;;;7.57;;
27223;SDS011;14965;50.660;13.226;2023-05-15T10:03:44;11.63;;;8.45;;
27223;SDS011;14965;50.660;13.226;2023-05-15T10:06:21;12.23;;;7.82;;
27223;SDS011;14965;50.660;13.226;2023-05-15T10:08:51;9.82;;;7.63;;
27223;SDS011;14965;50.660;13.226;2023-05-15T10:11:17;10.73;;;8.40;;
27223;SDS011;14965;50.660;13.226;2023-05-15T10:13:44;15.48;;;9.30;;
27223;SDS011;14965;50.660;13.226;2023-05-15T10:16:11;19.92;;;11.98;;
27223;SDS011;14965;50.660;13.226;2023-05-15T10:18:39;23.88;;;16.85;;
27223;SDS011;14965;50.660;13.226;2023-05-15T10:21:05;63.17;;;38.60;;
27223;SDS011;14965;50.660;13.226;2023-05-15T10:23:33;77.80;;;55.13;;
27223;SDS011;14965;50.660;13.226;2023-05-15T10:26:03;45.43;;;32.93;;
27223;SDS011;14965;50.660;13.226;2023-05-15T10:28:38;123.65;;;88.72;;
27223;SDS011;14965;50.660;13.226;2023-05-15T10:31:05;133.73;;;96.50;;
27223;SDS011;14965;50.660;13.226;2023-05-15T10:33:34;45.47;;;31.40;;
27223;SDS011;14965;50.660;13.226;2023-05-15T10:36:01;34.13;;;27.90;;
27223;SDS011;14965;50.660;13.226;2023-05-15T10:38:29;20.77;;;14.85;;
27223;SDS011;14965;50.660;13.226;2023-05-15T10:43:26;17.92;;;14.05;;
27223;SDS011;14965;50.660;13.226;2023-05-15T10:45:54;17.77;;;12.73;;
27223;SDS011;14965;50.660;13.226;2023-05-15T10:48:21;17.80;;;12.23;;
27223;SDS011;14965;50.660;13.226;2023-05-15T10:50:48;16.38;;;13.13;;
27223;SDS011;14965;50.660;13.226;2023-05-15T10:53:14;18.05;;;13.20;;
27223;SDS011;14965;50.660;13.226;2023-05-15T10:55:40;19.15;;;14.75;;
27223;SDS011;14965;50.660;13.226;2023-05-15T10:58:07;16.27;;;13.20;;
27223;SDS011;14965;50.660;13.226;2023-05-15T11:04:17;43.60;;;18.00;;
27223;SDS011;14965;50.660;13.226;2023-05-15T11:06:47;34.53;;;19.98;;
27223;SDS011;14965;50.660;13.226;2023-05-15T11:09:42;46.75;;;23.15;;
27223;SDS011;14965;50.660;13.226;2023-05-15T11:12:10;34.60;;;22.10;;
27223;SDS011;14965;50.660;13.226;2023-05-15T11:14:37;30.10;;;21.88;;
27223;SDS011;14965;50.660;13.226;2023-05-15T11:17:06;17.02;;;13.80;;
27223;SDS011;14965;50.660;13.226;2023-05-15T11:19:55;20.17;;;16.73;;
27223;SDS011;14965;50.660;13.226;2023-05-15T11:22:24;18.92;;;14.35;;
27223;SDS011;14965;50.660;13.226;2023-05-15T11:25:00;21.90;;;17.83;;
27223;SDS011;14965;50.660;13.226;2023-05-15T11:27:29;23.92;;;18.67;;
27223;SDS011;14965;50.660;13.226;2023-05-15T11:30:07;23.35;;;18.90;;
27223;SDS011;14965;50.660;13.226;2023-05-15T11:32:42;23.35;;;17.65;;
27223;SDS011;14965;50.660;13.226;2023-05-15T11:35:21;22.88;;;17.80;;
27223;SDS011;14965;50.660;13.226;2023-05-15T11:37:50;28.05;;;19.98;;
27223;SDS011;14965;50.660;13.226;2023-05-15T11:40:19;26.02;;;18.85;;
27223;SDS011;14965;50.660;13.226;2023-05-15T11:42:58;24.33;;;18.90;;
27223;SDS011;14965;50.660;13.226;2023-05-15T11:45:27;23.48;;;17.48;;
27223;SDS011;14965;50.660;13.226;2023-05-15T11:47:55;23.20;;;18.60;;
27223;SDS011;14965;50.660;13.226;2023-05-15T11:50:26;22.58;;;18.98;;
27223;SDS011;14965;50.660;13.226;2023-05-15T11:55:20;21.48;;;17.92;;
27223;SDS011;14965;50.660;13.226;2023-05-15T11:57:46;22.38;;;17.33;;
27223;SDS011;14965;50.660;13.226;2023-05-15T12:00:13;24.05;;;18.45;;
27223;SDS011;14965;50.660;13.226;2023-05-15T12:02:39;23.10;;;19.40;;
27223;SDS011;14965;50.660;13.226;2023-05-15T12:05:08;26.80;;;19.75;;
27223;SDS011;14965;50.660;13.226;2023-05-15T12:07:37;24.63;;;19.52;;
27223;SDS011;14965;50.660;13.226;2023-05-15T12:10:05;23.40;;;18.77;;
27223;SDS011;14965;50.660;13.226;2023-05-15T12:12:34;22.08;;;18.52;;
27223;SDS011;14965;50.660;13.226;2023-05-15T12:15:00;25.80;;;18.83;;
27223;SDS011;14965;50.660;13.226;2023-05-15T12:17:26;31.88;;;21.20;;
27223;SDS011;14965;50.660;13.226;2023-05-15T12:19:52;22.02;;;19.27;;
27223;SDS011;14965;50.660;13.226;2023-05-15T12:22:21;27.70;;;20.85;;
27223;SDS011;14965;50.660;13.226;2023-05-15T12:24:49;24.52;;;20.60;;
27223;SDS011;14965;50.660;13.226;2023-05-15T12:27:15;24.05;;;19.98;;
27223;SDS011;14965;50.660;13.226;2023-05-15T12:29:42;22.77;;;17.45;;
27223;SDS011;14965;50.660;13.226;2023-05-15T12:32:08;23.60;;;19.67;;
27223;SDS011;14965;50.660;13.226;2023-05-15T12:34:35;22.60;;;17.45;;
27223;SDS011;14965;50.660;13.226;2023-05-15T12:37:01;23.65;;;19.25;;
27223;SDS011;14965;50.660;13.226;2023-05-15T12:39:27;20.90;;;16.25;;
27223;SDS011;14965;50.660;13.226;2023-05-15T12:41:57;22.33;;;17.63;;
27223;SDS011;14965;50.660;13.226;2023-05-15T12:44:24;19.17;;;16.38;;
27223;SDS011;14965;50.660;13.226;2023-05-15T12:46:50;18.77;;;16.40;;
27223;SDS011;14965;50.660;13.226;2023-05-15T12:49:21;20.00;;;16.70;;
27223;SDS011;14965;50.660;13.226;2023-05-15T12:51:48;19.23;;;14.50;;
27223;SDS011;14965;50.660;13.226;2023-05-15T12:54:17;18.23;;;14.85;;
27223;SDS011;14965;50.660;13.226;2023-05-15T12:56:45;17.63;;;14.25;;
27223;SDS011;14965;50.660;13.226;2023-05-15T12:59:13;15.80;;;12.05;;
27223;SDS011;14965;50.660;13.226;2023-05-15T13:01:39;15.45;;;12.90;;
27223;SDS011;14965;50.660;13.226;2023-05-15T13:04:06;16.08;;;13.75;;
27223;SDS011;14965;50.660;13.226;2023-05-15T13:06:33;15.80;;;13.50;;
27223;SDS011;14965;50.660;13.226;2023-05-15T13:11:28;25.80;;;20.52;;
27223;SDS011;14965;50.660;13.226;2023-05-15T13:13:54;18.38;;;14.18;;
27223;SDS011;14965;50.660;13.226;2023-05-15T13:16:23;17.88;;;12.50;;
27223;SDS011;14965;50.660;13.226;2023-05-15T13:18:51;16.08;;;11.82;;
27223;SDS011;14965;50.660;13.226;2023-05-15T13:21:19;18.63;;;15.25;;
27223;SDS011;14965;50.660;13.226;2023-05-15T13:23:45;21.02;;;14.60;;
27223;SDS011;14965;50.660;13.226;2023-05-15T13:26:11;17.65;;;12.30;;
27223;SDS011;14965;50.660;13.226;2023-05-15T13:28:37;13.57;;;8.73;;
27223;SDS011;14965;50.660;13.226;2023-05-15T13:31:03;11.55;;;9.63;;
27223;SDS011;14965;50.660;13.226;2023-05-15T13:33:31;14.02;;;10.50;;
27223;SDS011;14965;50.660;13.226;2023-05-15T13:35:57;14.68;;;10.48;;
27223;SDS011;14965;50.660;13.226;2023-05-15T13:38:23;12.43;;;10.23;;
27223;SDS011;14965;50.660;13.226;2023-05-15T13:40:48;12.52;;;11.00;;
27223;SDS011;14965;50.660;13.226;2023-05-15T13:43:14;12.48;;;8.65;;
27223;SDS011;14965;50.660;13.226;2023-05-15T13:45:40;10.00;;;6.85;;
27223;SDS011;14965;50.660;13.226;2023-05-15T13:48:06;7.60;;;5.88;;
27223;SDS011;14965;50.660;13.226;2023-05-15T13:50:34;8.35;;;5.68;;
27223;SDS011;14965;50.660;13.226;2023-05-15T13:53:03;6.90;;;5.10;;
27223;SDS011;14965;50.660;13.226;2023-05-15T13:55:29;10.05;;;5.60;;
27223;SDS011;14965;50.660;13.226;2023-05-15T13:57:55;7.97;;;5.68;;
27223;SDS011;14965;50.660;13.226;2023-05-15T14:00:24;7.20;;;5.82;;
27223;SDS011;14965;50.660;13.226;2023-05-15T14:02:50;8.35;;;6.22;;
27223;SDS011;14965;50.660;13.226;2023-05-15T14:05:17;9.95;;;6.18;;
27223;SDS011;14965;50.660;13.226;2023-05-15T14:07:44;7.28;;;6.00;;
27223;SDS011;14965;50.660;13.226;2023-05-15T14:10:12;10.40;;;6.90;;
27223;SDS011;14965;50.660;13.226;2023-05-15T14:12:39;7.50;;;6.53;;
27223;SDS011;14965;50.660;13.226;2023-05-15T14:15:05;9.75;;;6.32;;
27223;SDS011;14965;50.660;13.226;2023-05-15T14:17:32;12.43;;;6.82;;
27223;SDS011;14965;50.660;13.226;2023-05-15T14:19:58;11.55;;;6.53;;
27223;SDS011;14965;50.660;13.226;2023-05-15T14:22:24;9.05;;;6.70;;
27223;SDS011;14965;50.660;13.226;2023-05-15T14:24:52;9.88;;;6.82;;
27223;SDS011;14965;50.660;13.226;2023-05-15T14:27:18;9.30;;;6.53;;
27223;SDS011;14965;50.660;13.226;2023-05-15T14:29:44;8.48;;;6.72;;
27223;SDS011;14965;50.660;13.226;2023-05-15T14:32:10;8.32;;;6.93;;
27223;SDS011;14965;50.660;13.226;2023-05-15T14:34:36;11.30;;;6.93;;
27223;SDS011;14965;50.660;13.226;2023-05-15T14:37:02;15.40;;;7.63;;